createdAt,value
2023-01-06T00:03:25.175Z,11.47
2023-01-06T00:07:33.390Z,11.00
2023-01-06T00:11:41.372Z,10.30
2023-01-06T00:15:45.867Z,9.03
2023-01-06T00:19:51.032Z,7.93
2023-01-06T00:23:56.557Z,8.67
2023-01-06T00:28:01.745Z,7.70
2023-01-06T00:32:06.037Z,6.77
2023-01-06T00:36:11.069Z,8.10
2023-01-06T00:40:16.479Z,7.20
2023-01-06T00:44:19.795Z,6.60
2023-01-06T00:48:23.365Z,6.70
2023-01-06T00:52:26.588Z,8.07
2023-01-06T00:56:31.419Z,7.93
2023-01-06T01:00:34.804Z,8.00
2023-01-06T01:04:38.350Z,8.77
2023-01-06T01:08:41.642Z,7.83
2023-01-06T01:12:46.823Z,7.70
2023-01-06T01:16:50.308Z,7.23
2023-01-06T01:20:53.918Z,7.77
2023-01-06T01:24:57.256Z,7.10
2023-01-06T01:29:02.215Z,8.40
2023-01-06T01:33:05.694Z,8.33
2023-01-06T01:37:09.055Z,7.63
2023-01-06T01:41:15.860Z,7.17
2023-01-06T01:45:24.697Z,7.93
2023-01-06T01:49:32.374Z,7.87
2023-01-06T01:53:40.903Z,9.10
2023-01-06T01:57:53.620Z,7.93
2023-01-06T02:01:58.646Z,7.83
2023-01-06T02:06:11.656Z,8.60
2023-01-06T02:10:17.368Z,7.40
2023-01-06T02:14:23.283Z,8.23
2023-01-06T02:18:44.584Z,10.80
2023-01-06T02:23:34.993Z,9.77
2023-01-06T02:28:17.172Z,8.30
2023-01-06T02:32:40.405Z,7.37
2023-01-06T02:36:51.788Z,7.93
2023-01-06T02:41:28.528Z,7.47
2023-01-06T02:45:42.807Z,7.10
2023-01-06T02:49:57.665Z,7.43
2023-01-06T02:54:13.096Z,7.60
2023-01-06T02:58:24.083Z,7.33
2023-01-06T03:02:29.219Z,6.97
2023-01-06T03:06:36.636Z,7.00
2023-01-06T03:10:42.791Z,7.20
2023-01-06T03:14:50.385Z,7.23
2023-01-06T03:18:55.195Z,7.00
2023-01-06T03:23:01.018Z,6.90
2023-01-06T03:27:05.571Z,6.00
2023-01-06T03:31:17.043Z,6.93
2023-01-06T03:35:32.999Z,6.23
2023-01-06T03:39:45.556Z,6.10
2023-01-06T03:44:00.265Z,7.10
2023-01-06T03:48:10.383Z,6.70
2023-01-06T03:52:19.096Z,5.83
2023-01-06T03:56:28.081Z,5.30
2023-01-06T04:00:36.104Z,4.20
2023-01-06T04:04:39.622Z,4.10
2023-01-06T04:08:43.031Z,4.53
2023-01-06T04:12:47.997Z,5.60
2023-01-06T04:16:51.370Z,5.40
2023-01-06T04:20:54.820Z,4.33
2023-01-06T04:24:58.456Z,4.80
2023-01-06T04:29:03.226Z,6.90
2023-01-06T04:33:06.634Z,8.57
2023-01-06T04:37:10.101Z,7.20
2023-01-06T04:41:13.505Z,8.37
2023-01-06T04:45:18.273Z,7.40
2023-01-06T04:49:21.532Z,6.27
2023-01-06T04:53:24.878Z,6.00
2023-01-06T04:57:28.131Z,5.93
2023-01-06T05:01:33.219Z,6.73
2023-01-06T05:05:36.618Z,6.10
2023-01-06T05:09:40.325Z,10.93
2023-01-06T05:13:43.763Z,7.33
2023-01-06T05:17:48.457Z,6.30
2023-01-06T05:21:51.826Z,5.90
2023-01-06T05:25:55.211Z,5.90
2023-01-06T05:38:06.695Z,5.77
2023-01-06T05:42:12.872Z,5.93
2023-01-06T05:46:16.686Z,5.50
2023-01-06T05:50:20.451Z,5.53
2023-01-06T05:54:25.636Z,5.70
2023-01-06T05:58:29.376Z,6.87
2023-01-06T06:02:33.083Z,7.10
2023-01-06T06:06:36.391Z,6.67
2023-01-06T06:10:41.325Z,5.77
2023-01-06T06:14:44.578Z,6.90
2023-01-06T06:18:52.478Z,5.57
2023-01-06T06:22:55.926Z,6.43
2023-01-06T06:27:00.614Z,5.00
2023-01-06T06:31:08.568Z,6.50
2023-01-06T06:35:11.993Z,6.20
2023-01-06T06:39:15.636Z,5.90
2023-01-06T06:43:21.045Z,6.03
2023-01-06T06:47:24.273Z,5.13
2023-01-06T06:51:27.655Z,5.97
2023-01-06T06:55:30.990Z,6.67
2023-01-06T06:59:35.793Z,5.90
2023-01-06T07:03:40.133Z,6.40
2023-01-06T07:07:43.626Z,6.97
2023-01-06T07:11:46.901Z,7.80
2023-01-06T07:15:54.070Z,7.87
2023-01-06T07:19:57.764Z,7.40
2023-01-06T07:24:01.235Z,7.93
2023-01-06T07:28:07.200Z,8.63
2023-01-06T07:32:12.982Z,10.17
2023-01-06T07:36:20.457Z,11.27
2023-01-06T07:40:23.894Z,12.57
2023-01-06T07:44:30.535Z,14.20
2023-01-06T07:48:35.660Z,12.57
2023-01-06T07:52:39.073Z,9.83
2023-01-06T07:56:44.231Z,8.90
2023-01-06T08:00:48.807Z,10.90
2023-01-06T08:04:54.885Z,9.30
2023-01-06T08:08:58.366Z,9.43
2023-01-06T08:13:02.972Z,9.40
2023-01-06T08:17:08.029Z,9.20
2023-01-06T08:21:13.507Z,7.70
2023-01-06T08:25:17.042Z,8.43
2023-01-06T08:29:20.410Z,6.50
2023-01-06T08:33:25.957Z,7.00
2023-01-06T08:37:30.649Z,6.03
2023-01-06T08:41:33.986Z,5.37
2023-01-06T08:45:40.502Z,6.73
2023-01-06T08:49:43.745Z,6.77
2023-01-06T08:53:48.845Z,4.80
2023-01-06T08:57:54.682Z,5.27
2023-01-06T09:01:58.534Z,5.30
2023-01-06T09:06:01.861Z,4.63
2023-01-06T09:10:07.561Z,5.87
2023-01-06T09:14:11.273Z,5.37
2023-01-06T09:18:14.706Z,3.93
2023-01-06T09:22:17.947Z,3.33
2023-01-06T09:26:23.637Z,3.60
2023-01-06T09:30:27.092Z,4.20
2023-01-06T09:34:30.424Z,3.97
2023-01-06T09:38:33.680Z,4.43
2023-01-06T09:43:03.912Z,3.97
2023-01-06T09:47:10.896Z,3.97
2023-01-06T09:51:21.623Z,3.93
2023-01-06T09:55:35.094Z,4.23
2023-01-06T09:59:52.063Z,4.47
2023-01-06T10:03:57.052Z,3.30
2023-01-06T10:08:07.158Z,4.23
2023-01-06T10:12:23.722Z,4.57
2023-01-06T10:16:44.864Z,7.50
2023-01-06T10:20:58.574Z,6.77
2023-01-06T10:25:08.326Z,6.90
2023-01-06T10:29:15.621Z,6.23
2023-01-06T10:37:40.373Z,6.20
2023-01-06T10:41:49.675Z,5.70
2023-01-06T10:45:53.995Z,5.73
2023-01-06T10:49:59.926Z,5.30
2023-01-06T10:54:08.198Z,4.93
2023-01-06T10:58:28.515Z,4.77
2023-01-06T11:02:31.919Z,5.47
2023-01-06T11:06:37.345Z,3.93
2023-01-06T11:10:44.737Z,3.90
2023-01-06T11:14:53.740Z,4.13
2023-01-06T11:18:59.442Z,3.33
2023-01-06T11:23:24.153Z,2.70
2023-01-06T11:27:28.164Z,2.90
2023-01-06T11:31:31.498Z,2.37
2023-01-06T11:35:36.081Z,2.83
2023-01-06T11:39:45.198Z,2.50
2023-01-06T11:43:51.793Z,2.80
2023-01-06T11:47:59.120Z,2.93
2023-01-06T11:52:04.359Z,3.03
2023-01-06T11:56:19.952Z,3.10
2023-01-06T12:00:35.835Z,3.00
2023-01-06T12:04:43.889Z,3.20
2023-01-06T12:08:55.382Z,2.80
2023-01-06T12:13:00.190Z,3.10
2023-01-06T12:17:08.415Z,2.97
2023-01-06T12:21:17.241Z,2.00
2023-01-06T12:25:24.349Z,2.63
2023-01-06T12:29:29.843Z,2.90
2023-01-06T12:33:40.559Z,2.03
2023-01-06T12:37:48.448Z,2.50
2023-01-06T12:41:56.580Z,2.60
2023-01-06T12:46:06.656Z,2.30
2023-01-06T12:50:18.233Z,2.60
2023-01-06T12:54:29.169Z,2.40
2023-01-06T12:58:43.987Z,2.40
2023-01-06T13:03:10.624Z,2.40
2023-01-06T13:07:23.081Z,2.30
2023-01-06T13:11:35.989Z,2.60
2023-01-06T13:15:44.389Z,1.90
2023-01-06T13:19:52.349Z,2.50
2023-01-06T13:24:12.791Z,2.10
2023-01-06T13:28:29.539Z,2.17
2023-01-06T13:32:48.766Z,2.90
2023-01-06T13:37:28.856Z,2.67
2023-01-06T13:41:37.247Z,2.43
2023-01-06T13:45:43.559Z,2.33
2023-01-06T13:49:48.271Z,2.10
2023-01-06T13:53:55.011Z,2.27
2023-01-06T13:58:00.134Z,2.07
2023-01-06T14:02:03.483Z,2.40
2023-01-06T14:06:11.450Z,2.17
2023-01-06T14:10:34.007Z,1.73
2023-01-06T14:14:40.412Z,2.07
2023-01-06T14:18:46.933Z,1.80
2023-01-06T14:23:01.721Z,2.77
2023-01-06T14:27:08.807Z,2.50
2023-01-06T14:31:49.946Z,2.13
2023-01-06T14:36:04.284Z,2.10
2023-01-06T14:40:18.980Z,2.37
2023-01-06T14:44:31.256Z,2.20
2023-01-06T14:48:43.771Z,2.60
2023-01-06T14:52:53.579Z,2.63
2023-01-06T14:57:00.744Z,2.17
2023-01-06T15:01:09.020Z,2.27
2023-01-06T15:05:23.280Z,2.10
2023-01-06T15:09:27.978Z,2.80
2023-01-06T15:13:33.973Z,2.83
2023-01-06T15:17:41.843Z,3.53
2023-01-06T15:21:49.379Z,3.30
2023-01-06T15:25:55.318Z,3.37
2023-01-06T15:30:00.173Z,4.00
2023-01-06T15:34:10.853Z,4.70
2023-01-06T15:38:26.784Z,5.27
2023-01-06T15:42:31.682Z,4.20
2023-01-06T15:46:42.788Z,4.10
2023-01-06T15:50:49.545Z,4.10
2023-01-06T15:55:04.485Z,4.63
2023-01-06T15:59:17.133Z,4.30
2023-01-06T16:03:24.395Z,3.73
2023-01-06T16:07:41.723Z,4.20
2023-01-06T16:11:57.987Z,2.87
2023-01-06T16:16:04.482Z,3.40
2023-01-06T16:20:22.311Z,3.77
2023-01-06T16:24:30.176Z,3.40
2023-01-06T16:28:34.536Z,4.37
2023-01-06T16:32:40.830Z,3.97
2023-01-06T16:36:45.286Z,4.53
2023-01-06T16:40:53.760Z,4.17
2023-01-06T16:45:02.555Z,4.63
2023-01-06T16:49:10.840Z,5.90
2023-01-06T16:53:18.764Z,5.47
2023-01-06T16:57:26.030Z,5.70
2023-01-06T17:01:30.219Z,5.10
2023-01-06T17:05:38.031Z,5.60
2023-01-06T17:09:42.110Z,5.37
2023-01-06T17:13:53.924Z,4.70
2023-01-06T17:17:57.178Z,4.10
2023-01-06T17:22:13.956Z,4.50
2023-01-06T17:26:18.811Z,4.97
2023-01-06T17:30:23.824Z,4.93
2023-01-06T17:34:32.028Z,5.63
2023-01-06T17:38:35.644Z,5.20
2023-01-06T17:42:39.310Z,5.87
2023-01-06T17:46:44.748Z,5.60
2023-01-06T17:50:50.774Z,6.50
2023-01-06T17:55:13.791Z,6.90
2023-01-06T17:59:19.475Z,6.87
2023-01-06T18:03:27.268Z,6.67
2023-01-06T18:07:32.757Z,5.43
2023-01-06T18:11:38.976Z,4.70
2023-01-06T18:15:47.033Z,4.77
2023-01-06T18:19:57.278Z,4.90
2023-01-06T18:24:00.688Z,4.90
2023-01-06T18:28:15.706Z,5.63
2023-01-06T18:32:28.519Z,6.17
2023-01-06T18:36:34.065Z,5.93
2023-01-06T18:40:40.377Z,6.40
2023-01-06T18:44:46.313Z,6.30
2023-01-06T18:48:50.175Z,7.03
2023-01-06T18:52:57.710Z,7.53
2023-01-06T18:57:05.913Z,7.70
2023-01-06T19:01:28.231Z,7.20
2023-01-06T19:05:32.745Z,6.27
2023-01-06T19:09:47.223Z,6.77
2023-01-06T19:13:54.513Z,7.30
2023-01-06T19:17:58.556Z,5.53
2023-01-06T19:22:22.824Z,6.20
2023-01-06T19:26:33.460Z,6.20
2023-01-06T19:30:46.882Z,6.23
2023-01-06T19:34:50.265Z,6.73
2023-01-06T19:38:55.348Z,8.80
2023-01-06T19:43:13.395Z,9.57
2023-01-06T19:47:23.409Z,8.43
2023-01-06T19:51:34.694Z,8.27
2023-01-06T19:55:39.828Z,8.70
2023-01-06T19:59:47.203Z,8.50
2023-01-06T20:03:55.049Z,7.07
2023-01-06T20:08:02.114Z,9.00
2023-01-06T20:12:07.094Z,8.50
2023-01-06T20:16:12.163Z,10.73
2023-01-06T20:20:15.769Z,9.80
2023-01-06T20:24:19.398Z,8.00
2023-01-06T20:28:24.303Z,8.63
2023-01-06T20:32:29.957Z,9.30
2023-01-06T20:36:35.887Z,9.80
2023-01-06T20:40:40.941Z,8.90
2023-01-06T20:44:44.771Z,8.73
2023-01-06T20:48:51.125Z,9.47
2023-01-06T20:52:54.889Z,8.40
2023-01-06T20:56:59.200Z,8.97
2023-01-06T21:01:03.475Z,8.77
2023-01-06T21:05:09.665Z,8.33
2023-01-06T21:09:13.891Z,7.93
2023-01-06T21:13:18.561Z,8.97
2023-01-06T21:17:22.465Z,9.10
2023-01-06T21:21:27.756Z,9.87
2023-01-06T21:25:31.492Z,10.60
2023-01-06T21:29:37.232Z,9.50
2023-01-06T21:33:44.535Z,7.50
2023-01-06T21:37:50.139Z,8.87
2023-01-06T21:42:11.638Z,8.30
2023-01-06T21:46:15.298Z,9.10
2023-01-06T21:50:18.890Z,9.87
2023-01-06T21:54:24.275Z,11.13
2023-01-06T21:58:27.977Z,14.17
2023-01-06T22:02:31.606Z,13.60
2023-01-06T22:06:36.213Z,10.83
2023-01-06T22:10:43.879Z,11.97
2023-01-06T22:14:49.802Z,13.07
2023-01-06T22:18:55.041Z,11.57
2023-01-06T22:22:59.091Z,13.30
2023-01-06T22:27:03.972Z,10.57
2023-01-06T22:31:07.388Z,9.57
2023-01-06T22:35:11.830Z,10.67
2023-01-06T22:39:15.257Z,8.10
2023-01-06T22:43:20.059Z,7.97
2023-01-06T22:47:23.452Z,8.53
2023-01-06T22:51:28.663Z,7.90
2023-01-06T22:55:32.126Z,8.03
2023-01-06T22:59:36.928Z,7.60
2023-01-06T23:03:40.389Z,7.93
2023-01-06T23:07:45.210Z,8.40
2023-01-06T23:11:49.317Z,9.13
2023-01-06T23:16:05.595Z,11.30
2023-01-06T23:20:09.802Z,6.50
2023-01-06T23:24:13.954Z,8.40
2023-01-06T23:28:17.379Z,7.40
2023-01-06T23:32:22.268Z,8.50
2023-01-06T23:36:27.294Z,7.40
2023-01-06T23:40:30.682Z,6.43
2023-01-06T23:44:34.023Z,6.60
2023-01-06T23:48:38.983Z,5.70
2023-01-06T23:52:42.510Z,6.70
2023-01-06T23:56:45.996Z,6.50
